createdAt,value
2016-12-18T00:00:54.754Z,0
2016-12-18T00:01:55.002Z,0
2016-12-18T00:02:54.353Z,0
2016-12-18T00:03:54.309Z,0
2016-12-18T00:04:54.581Z,0
2016-12-18T00:05:54.835Z,0
2016-12-18T00:06:54.794Z,0
2016-12-18T00:07:54.750Z,0
2016-12-18T00:08:54.709Z,0
2016-12-18T00:09:54.675Z,0
2016-12-18T00:10:54.627Z,0
2016-12-18T00:11:54.586Z,0
2016-12-18T00:12:53.941Z,0
2016-12-18T00:13:53.898Z,0
2016-12-18T00:14:54.160Z,0
2016-12-18T00:15:54.412Z,0
2016-12-18T00:16:54.374Z,0
2016-12-18T00:17:54.336Z,0
2016-12-18T00:18:53.996Z,0
2016-12-18T00:19:53.948Z,0
2016-12-18T00:20:53.305Z,0
2016-12-18T00:21:54.170Z,0
2016-12-18T00:22:54.122Z,0
2016-12-18T00:23:53.477Z,0
2016-12-18T00:24:53.738Z,0
2016-12-18T00:25:53.699Z,0
2016-12-18T00:26:53.656Z,0
2016-12-18T00:27:53.616Z,0
2016-12-18T00:28:53.875Z,0
2016-12-18T00:29:53.831Z,0
2016-12-18T00:30:53.486Z,0
2016-12-18T00:31:53.444Z,0
2016-12-18T00:32:53.102Z,0
2016-12-18T00:33:53.660Z,0
2016-12-18T00:34:53.616Z,0
2016-12-18T00:35:53.279Z,0
2016-12-18T00:36:53.537Z,0
2016-12-18T00:37:53.499Z,0
2016-12-18T00:38:53.447Z,0
2016-12-18T00:39:52.802Z,0
2016-12-18T00:40:53.064Z,0
2016-12-18T00:41:53.329Z,0
2016-12-18T00:42:53.279Z,0
2016-12-18T00:43:53.240Z,0
2016-12-18T00:44:52.901Z,0
2016-12-18T00:45:52.854Z,0
2016-12-18T00:46:52.816Z,0
2016-12-18T00:47:53.076Z,0
2016-12-18T00:48:53.039Z,0
2016-12-18T00:49:52.994Z,0
2016-12-18T00:50:52.647Z,0
2016-12-18T00:51:52.625Z,0
2016-12-18T00:52:52.861Z,0
2016-12-18T00:53:52.821Z,0
2016-12-18T00:54:52.776Z,0
2016-12-18T00:55:52.735Z,0
2016-12-18T00:56:52.388Z,0
2016-12-18T00:57:52.647Z,0
2016-12-18T00:58:52.609Z,0
2016-12-18T00:59:52.565Z,0
2016-12-18T01:00:51.917Z,0
2016-12-18T01:01:52.181Z,0
2016-12-18T01:02:52.139Z,0
2016-12-18T01:03:52.098Z,0
2016-12-18T01:04:51.452Z,0
2016-12-18T01:05:52.313Z,0
2016-12-18T01:06:51.966Z,0
2016-12-18T01:07:51.928Z,0
2016-12-18T01:08:51.884Z,0
2016-12-18T01:09:52.174Z,0
2016-12-18T01:10:52.104Z,0
2016-12-18T01:11:52.071Z,0
2016-12-18T01:12:51.725Z,0
2016-12-18T01:13:51.972Z,0
2016-12-18T01:14:51.631Z,0
2016-12-18T01:15:51.287Z,0
2016-12-18T01:16:51.847Z,0
2016-12-18T01:17:51.505Z,0
2016-12-18T01:18:51.167Z,0
2016-12-18T01:19:51.727Z,0
2016-12-18T01:20:51.380Z,0
2016-12-18T01:21:51.643Z,0
2016-12-18T01:22:50.696Z,0
2016-12-18T01:23:51.553Z,0
2016-12-18T01:24:51.214Z,0
2016-12-18T01:25:51.477Z,0
2016-12-18T01:26:50.524Z,0
2016-12-18T01:27:51.084Z,0
2016-12-18T01:28:51.348Z,0
2016-12-18T01:29:51.005Z,0
2016-12-18T01:30:50.960Z,0
2016-12-18T01:31:50.914Z,0
2016-12-18T01:32:51.179Z,0
2016-12-18T01:33:51.165Z,0
2016-12-18T01:34:50.797Z,0
2016-12-18T01:35:51.051Z,0
2016-12-18T01:36:50.709Z,0
2016-12-18T01:37:50.973Z,0
2016-12-18T01:38:50.322Z,0
2016-12-18T01:39:50.277Z,0
2016-12-18T01:40:50.843Z,0
2016-12-18T01:41:50.818Z,0
2016-12-18T01:42:50.453Z,0
2016-12-18T01:43:50.412Z,0
2016-12-18T01:44:50.673Z,0
2016-12-18T01:45:50.025Z,0
2016-12-18T01:46:50.590Z,0
2016-12-18T01:47:50.287Z,0
2016-12-18T01:48:50.202Z,0
2016-12-18T01:49:50.464Z,0
2016-12-18T01:50:49.821Z,0
2016-12-18T01:51:49.773Z,0
2016-12-18T01:52:50.339Z,0
2016-12-18T01:53:50.300Z,0
2016-12-18T01:54:49.953Z,0
2016-12-18T01:55:49.916Z,0
2016-12-18T01:56:50.171Z,0
2016-12-18T01:57:49.829Z,0
2016-12-18T01:58:50.093Z,0
2016-12-18T01:59:49.755Z,0
2016-12-18T02:00:50.003Z,0
2016-12-18T02:01:49.660Z,0
2016-12-18T02:02:49.920Z,0
2016-12-18T02:03:49.575Z,0
2016-12-18T02:04:49.534Z,0
2016-12-18T02:05:49.795Z,0
2016-12-18T02:06:49.455Z,0
2016-12-18T02:07:49.406Z,0
2016-12-18T02:08:49.366Z,0
2016-12-18T02:09:49.679Z,0
2016-12-18T02:10:49.584Z,0
2016-12-18T02:11:49.539Z,0
2016-12-18T02:12:49.503Z,0
2016-12-18T02:13:48.854Z,0
2016-12-18T02:14:49.122Z,0
2016-12-18T02:15:48.767Z,0
2016-12-18T02:16:49.333Z,0
2016-12-18T02:17:48.988Z,0
2016-12-18T02:18:49.250Z,0
2016-12-18T02:19:49.203Z,0
2016-12-18T02:20:49.168Z,0
2016-12-18T02:21:49.126Z,0
2016-12-18T02:22:49.083Z,0
2016-12-18T02:23:49.053Z,0
2016-12-18T02:24:48.696Z,0
2016-12-18T02:25:48.952Z,0
2016-12-18T02:26:48.007Z,0
2016-12-18T02:27:48.267Z,0
2016-12-18T02:28:48.847Z,0
2016-12-18T02:29:48.812Z,0
2016-12-18T02:30:48.748Z,0
2016-12-18T02:31:48.401Z,0
2016-12-18T02:32:48.357Z,0
2016-12-18T02:33:48.624Z,0
2016-12-18T02:34:48.271Z,0
2016-12-18T02:35:48.238Z,0
2016-12-18T02:36:48.495Z,0
2016-12-18T02:37:48.452Z,0
2016-12-18T02:38:48.409Z,0
2016-12-18T02:39:48.065Z,0
2016-12-18T02:40:48.331Z,0
2016-12-18T02:41:47.988Z,0
2016-12-18T02:42:47.974Z,0
2016-12-18T02:43:47.902Z,0
2016-12-18T02:44:47.590Z,0
2016-12-18T02:45:47.816Z,0
2016-12-18T02:46:47.774Z,0
2016-12-18T02:47:47.735Z,0
2016-12-18T02:48:47.726Z,0
2016-12-18T02:49:47.651Z,0
2016-12-18T02:50:47.909Z,0
2016-12-18T02:51:47.870Z,0
2016-12-18T02:52:47.832Z,0
2016-12-18T02:53:47.486Z,0
2016-12-18T02:54:47.441Z,0
2016-12-18T02:55:47.699Z,0
2016-12-18T02:56:47.667Z,0
2016-12-18T02:57:47.320Z,0
2016-12-18T02:58:47.274Z,0
2016-12-18T02:59:47.537Z,0
2016-12-18T03:00:47.219Z,0
2016-12-18T03:01:46.845Z,0
2016-12-18T03:02:46.803Z,0
2016-12-18T03:03:47.395Z,0
2016-12-18T03:04:47.021Z,0
2016-12-18T03:05:46.980Z,0
2016-12-18T03:06:47.243Z,0
2016-12-18T03:07:46.595Z,0
2016-12-18T03:08:46.859Z,0
2016-12-18T03:09:46.816Z,0
2016-12-18T03:10:47.077Z,0
2016-12-18T03:11:47.033Z,0
2016-12-18T03:12:46.688Z,0
2016-12-18T03:13:46.954Z,0
2016-12-18T03:14:46.303Z,0
2016-12-18T03:15:46.863Z,0
2016-12-18T03:16:46.819Z,0
2016-12-18T03:17:46.486Z,0
2016-12-18T03:18:46.760Z,0
2016-12-18T03:19:46.401Z,0
2016-12-18T03:20:46.661Z,0
2016-12-18T03:21:46.311Z,0
2016-12-18T03:22:46.268Z,0
2016-12-18T03:23:46.530Z,0
2016-12-18T03:24:46.486Z,0
2016-12-18T03:25:46.444Z,0
2016-12-18T03:26:45.799Z,0
2016-12-18T03:27:46.061Z,0
2016-12-18T03:28:46.018Z,0
2016-12-18T03:29:45.985Z,0
2016-12-18T03:30:45.935Z,0
2016-12-18T03:31:45.591Z,0
2016-12-18T03:32:45.851Z,0
2016-12-18T03:33:46.113Z,0
2016-12-18T03:34:45.770Z,0
2016-12-18T03:35:45.726Z,0
2016-12-18T03:36:45.687Z,0
2016-12-18T03:37:45.646Z,0
2016-12-18T03:38:45.905Z,0
2016-12-18T03:39:45.865Z,0
2016-12-18T03:40:45.217Z,0
2016-12-18T03:41:45.782Z,0
2016-12-18T03:42:45.438Z,0
2016-12-18T03:43:45.095Z,0
2016-12-18T03:44:45.348Z,0
2016-12-18T03:45:45.609Z,0
2016-12-18T03:46:45.266Z,0
2016-12-18T03:47:45.227Z,0
2016-12-18T03:48:45.181Z,0
2016-12-18T03:49:45.143Z,0
2016-12-18T03:50:45.101Z,0
2016-12-18T03:51:45.360Z,0
2016-12-18T03:52:45.316Z,0
2016-12-18T03:53:45.008Z,0
2016-12-18T03:54:44.934Z,0
2016-12-18T03:55:44.892Z,0
2016-12-18T03:56:45.147Z,0
2016-12-18T03:57:44.505Z,0
2016-12-18T03:58:45.064Z,0
2016-12-18T03:59:45.030Z,0
2016-12-18T04:00:44.381Z,0
2016-12-18T04:01:44.963Z,0
2016-12-18T04:02:44.899Z,0
2016-12-18T04:03:44.860Z,0
2016-12-18T04:04:44.811Z,0
2016-12-18T04:05:44.471Z,0
2016-12-18T04:06:44.433Z,0
2016-12-18T04:07:44.390Z,0
2016-12-18T04:08:44.348Z,0
2016-12-18T04:09:44.301Z,0
2016-12-18T04:10:44.565Z,0
2016-12-18T04:11:44.525Z,0
2016-12-18T04:12:44.479Z,0
2016-12-18T04:13:44.142Z,0
2016-12-18T04:14:44.398Z,0
2016-12-18T04:15:44.356Z,0
2016-12-18T04:16:44.315Z,0
2016-12-18T04:17:44.273Z,0
2016-12-18T04:18:43.926Z,0
2016-12-18T04:19:43.900Z,0
2016-12-18T04:20:44.147Z,0
2016-12-18T04:21:44.104Z,0
2016-12-18T04:22:44.060Z,0
2016-12-18T04:23:43.720Z,0
2016-12-18T04:24:43.975Z,0
2016-12-18T04:25:43.932Z,0
2016-12-18T04:26:43.903Z,0
2016-12-18T04:27:43.855Z,0
2016-12-18T04:28:43.815Z,0
2016-12-18T04:29:43.768Z,0
2016-12-18T04:30:43.428Z,0
2016-12-18T04:31:43.688Z,0
2016-12-18T04:32:43.645Z,0
2016-12-18T04:33:43.297Z,0
2016-12-18T04:34:43.555Z,0
2016-12-18T04:35:43.219Z,0
2016-12-18T04:36:43.179Z,0
2016-12-18T04:37:43.127Z,0
2016-12-18T04:38:43.094Z,0
2016-12-18T04:39:43.348Z,0
2016-12-18T04:40:43.304Z,0
2016-12-18T04:41:42.965Z,0
2016-12-18T04:42:43.223Z,0
2016-12-18T04:43:43.184Z,0
2016-12-18T04:44:43.139Z,0
2016-12-18T04:45:43.103Z,0
2016-12-18T04:46:43.062Z,0
2016-12-18T04:47:43.013Z,0
2016-12-18T04:48:42.670Z,0
2016-12-18T04:49:42.627Z,0
2016-12-18T04:50:42.888Z,0
2016-12-18T04:51:41.945Z,0
2016-12-18T04:52:42.802Z,0
2016-12-18T04:53:42.464Z,0
2016-12-18T04:54:42.419Z,0
2016-12-18T04:55:42.375Z,0
2016-12-18T04:56:42.032Z,0
2016-12-18T04:57:41.691Z,0
2016-12-18T04:58:42.255Z,0
2016-12-18T04:59:42.208Z,0
2016-12-18T05:00:42.474Z,0
2016-12-18T05:01:42.132Z,0
2016-12-18T05:02:42.080Z,0
2016-12-18T05:03:41.744Z,0
2016-12-18T05:04:42.002Z,0
2016-12-18T05:05:41.960Z,0
2016-12-18T05:06:41.611Z,0
2016-12-18T05:07:41.875Z,0
2016-12-18T05:08:42.134Z,0
2016-12-18T05:09:42.098Z,0
2016-12-18T05:10:41.751Z,0
2016-12-18T05:11:41.401Z,0
2016-12-18T05:12:41.669Z,0
2016-12-18T05:13:41.626Z,0
2016-12-18T05:14:41.582Z,0
2016-12-18T05:15:41.847Z,0
2016-12-18T05:16:41.799Z,0
2016-12-18T05:17:41.466Z,0
2016-12-18T05:18:41.107Z,0
2016-12-18T05:19:41.685Z,0
2016-12-18T05:20:41.342Z,0
2016-12-18T05:21:41.287Z,0
2016-12-18T05:22:41.551Z,0
2016-12-18T05:23:41.506Z,0
2016-12-18T05:24:40.887Z,0
2016-12-18T05:25:41.121Z,0
2016-12-18T05:26:41.078Z,0
2016-12-18T05:27:41.340Z,0
2016-12-18T05:28:41.298Z,0
2016-12-18T05:29:41.262Z,0
2016-12-18T05:30:40.909Z,0
2016-12-18T05:31:40.564Z,0
2016-12-18T05:32:40.830Z,0
2016-12-18T05:33:41.090Z,0
2016-12-18T05:34:41.051Z,0
2016-12-18T05:35:41.005Z,0
2016-12-18T05:36:40.998Z,0
2016-12-18T05:37:40.623Z,0
2016-12-18T05:38:40.572Z,0
2016-12-18T05:39:40.270Z,0
2016-12-18T05:40:40.793Z,0
2016-12-18T05:41:40.755Z,0
2016-12-18T05:42:40.406Z,0
2016-12-18T05:43:40.667Z,0
2016-12-18T05:44:40.023Z,0
2016-12-18T05:45:40.284Z,0
2016-12-18T05:46:40.241Z,0
2016-12-18T05:47:40.504Z,0
2016-12-18T05:48:40.161Z,0
2016-12-18T05:49:40.420Z,0
2016-12-18T05:50:40.374Z,0
2016-12-18T05:51:40.334Z,0
2016-12-18T05:52:39.691Z,0
2016-12-18T05:53:39.949Z,0
2016-12-18T05:54:39.904Z,0
2016-12-18T05:55:39.560Z,0
2016-12-18T05:56:39.529Z,0
2016-12-18T05:57:40.083Z,0
2016-12-18T05:58:40.045Z,0
2016-12-18T05:59:39.691Z,0
2016-12-18T06:00:39.667Z,0
2016-12-18T06:01:39.917Z,0
2016-12-18T06:02:39.571Z,0
2016-12-18T06:03:39.227Z,0
2016-12-18T06:04:39.792Z,0
2016-12-18T06:05:39.443Z,0
2016-12-18T06:06:39.101Z,0
2016-12-18T06:07:39.661Z,0
2016-12-18T06:08:39.322Z,0
2016-12-18T06:09:39.579Z,0
2016-12-18T06:10:39.234Z,0
2016-12-18T06:11:39.200Z,0
2016-12-18T06:12:39.452Z,0
2016-12-18T06:13:39.414Z,0
2016-12-18T06:14:39.368Z,0
2016-12-18T06:15:39.028Z,0
2016-12-18T06:16:38.986Z,0
2016-12-18T06:17:39.256Z,0
2016-12-18T06:18:39.202Z,0
2016-12-18T06:19:38.557Z,0
2016-12-18T06:20:38.815Z,0
2016-12-18T06:21:39.070Z,0
2016-12-18T06:22:38.430Z,0
2016-12-18T06:23:38.993Z,0
2016-12-18T06:24:38.368Z,0
2016-12-18T06:25:38.607Z,0
2016-12-18T06:26:38.872Z,0
2016-12-18T06:27:38.835Z,0
2016-12-18T06:28:38.784Z,0
2016-12-18T06:29:38.736Z,0
2016-12-18T06:30:38.395Z,0
2016-12-18T06:31:38.365Z,0
2016-12-18T06:32:38.315Z,0
2016-12-18T06:33:38.271Z,0
2016-12-18T06:34:37.928Z,0
2016-12-18T06:35:38.187Z,0
2016-12-18T06:36:38.449Z,0
2016-12-18T06:37:38.409Z,4
2016-12-18T06:38:38.059Z,4
2016-12-18T06:39:38.019Z,0
2016-12-18T06:40:37.986Z,4
2016-12-18T06:41:38.240Z,4
2016-12-18T06:42:37.891Z,4
2016-12-18T06:43:37.863Z,4
2016-12-18T06:44:37.835Z,4
2016-12-18T06:45:37.480Z,8
2016-12-18T06:46:37.722Z,8
2016-12-18T06:47:37.990Z,12
2016-12-18T06:48:37.643Z,12
2016-12-18T06:49:37.300Z,12
2016-12-18T06:50:37.254Z,12
2016-12-18T06:51:37.817Z,16
2016-12-18T06:52:37.777Z,16
2016-12-18T06:53:37.734Z,20
2016-12-18T06:54:37.695Z,24
2016-12-18T06:55:37.350Z,28
2016-12-18T06:56:37.607Z,28
2016-12-18T06:57:37.564Z,36
2016-12-18T06:58:37.223Z,40
2016-12-18T06:59:36.884Z,44
2016-12-18T07:00:36.847Z,44
2016-12-18T07:01:37.402Z,48
2016-12-18T07:02:36.750Z,56
2016-12-18T07:03:37.316Z,56
2016-12-18T07:04:36.977Z,60
2016-12-18T07:05:37.234Z,64
2016-12-18T07:06:36.916Z,68
2016-12-18T07:07:37.149Z,76
2016-12-18T07:08:36.806Z,84
2016-12-18T07:09:37.068Z,88
2016-12-18T07:10:37.026Z,92
2016-12-18T07:11:36.704Z,100
2016-12-18T07:12:36.646Z,108
2016-12-18T07:13:36.296Z,116
2016-12-18T07:14:36.553Z,128
2016-12-18T07:15:36.214Z,140
2016-12-18T07:16:36.167Z,148
2016-12-18T07:17:36.733Z,156
2016-12-18T07:18:36.684Z,168
2016-12-18T07:19:36.646Z,184
2016-12-18T07:20:36.303Z,204
2016-12-18T07:21:36.257Z,220
2016-12-18T07:22:36.221Z,240
2016-12-18T07:23:35.874Z,260
2016-12-18T07:24:36.133Z,276
2016-12-18T07:25:36.090Z,288
2016-12-18T07:26:36.048Z,312
2016-12-18T07:27:36.311Z,332
2016-12-18T07:28:35.965Z,340
2016-12-18T07:29:35.622Z,340
2016-12-18T07:30:35.886Z,340
2016-12-18T07:31:35.845Z,348
2016-12-18T07:32:36.105Z,352
2016-12-18T07:33:36.072Z,364
2016-12-18T07:34:35.712Z,376
2016-12-18T07:35:35.975Z,384
2016-12-18T07:36:35.935Z,400
2016-12-18T07:37:35.893Z,412
2016-12-18T07:38:35.261Z,428
2016-12-18T07:39:35.813Z,440
2016-12-18T07:40:35.465Z,460
2016-12-18T07:41:35.418Z,468
2016-12-18T07:42:35.381Z,488
2016-12-18T07:43:35.638Z,512
2016-12-18T07:44:34.999Z,528
2016-12-18T07:45:35.258Z,536
2016-12-18T07:46:35.519Z,556
2016-12-18T07:47:35.164Z,584
2016-12-18T07:48:35.430Z,612
2016-12-18T07:49:35.086Z,628
2016-12-18T07:50:35.046Z,652
2016-12-18T07:51:35.307Z,680
2016-12-18T07:52:35.274Z,700
2016-12-18T07:53:35.220Z,704
2016-12-18T07:54:35.187Z,704
2016-12-18T07:55:35.138Z,720
2016-12-18T07:56:34.796Z,752
2016-12-18T07:57:35.062Z,780
2016-12-18T07:58:35.013Z,808
2016-12-18T07:59:34.664Z,856
2016-12-18T08:00:34.656Z,916
2016-12-18T08:01:34.581Z,968
2016-12-18T08:02:34.845Z,1008
2016-12-18T08:03:34.801Z,1040
2016-12-18T08:04:34.756Z,1052
2016-12-18T08:05:34.724Z,1060
2016-12-18T08:06:34.377Z,1104
2016-12-18T08:07:34.345Z,1172
2016-12-18T08:08:34.595Z,1216
2016-12-18T08:09:34.590Z,1252
2016-12-18T08:10:34.508Z,1308
2016-12-18T08:11:34.162Z,1376
2016-12-18T08:12:34.428Z,1416
2016-12-18T08:13:34.389Z,1428
2016-12-18T08:14:33.737Z,1436
2016-12-18T08:15:34.030Z,1464
2016-12-18T08:16:34.256Z,1484
2016-12-18T08:17:33.916Z,1464
2016-12-18T08:18:33.881Z,1440
2016-12-18T08:19:33.529Z,1432
2016-12-18T08:20:33.793Z,1500
2016-12-18T08:21:34.052Z,1608
2016-12-18T08:22:33.711Z,1692
2016-12-18T08:23:33.667Z,1692
2016-12-18T08:24:33.928Z,1656
2016-12-18T08:25:33.581Z,1644
2016-12-18T08:26:33.876Z,1584
2016-12-18T08:27:33.500Z,1516
2016-12-18T08:28:33.762Z,1496
2016-12-18T08:29:33.418Z,1500
2016-12-18T08:30:33.384Z,1524
2016-12-18T08:31:33.633Z,1588
2016-12-18T08:32:33.593Z,1700
2016-12-18T08:33:33.255Z,1892
2016-12-18T08:34:33.511Z,2060
2016-12-18T08:35:33.168Z,2120
2016-12-18T08:36:33.432Z,2124
2016-12-18T08:37:33.085Z,2172
2016-12-18T08:38:33.041Z,2304
2016-12-18T08:39:32.704Z,2768
2016-12-18T08:40:32.962Z,3136
2016-12-18T08:41:33.221Z,3288
2016-12-18T08:42:33.187Z,3144
2016-12-18T08:43:32.540Z,2688
2016-12-18T08:44:33.105Z,2388
2016-12-18T08:45:33.056Z,2392
2016-12-18T08:46:32.711Z,2408
2016-12-18T08:47:32.676Z,2544
2016-12-18T08:48:32.930Z,2848
2016-12-18T08:49:32.591Z,2692
2016-12-18T08:50:32.553Z,2592
2016-12-18T08:51:32.509Z,2628
2016-12-18T08:52:32.767Z,2884
2016-12-18T08:53:32.426Z,3308
2016-12-18T08:54:32.691Z,3404
2016-12-18T08:55:32.647Z,3780
2016-12-18T08:56:32.309Z,4264
2016-12-18T08:57:32.568Z,4468
2016-12-18T08:58:32.219Z,4468
2016-12-18T08:59:32.477Z,4196
2016-12-18T09:00:32.139Z,3828
2016-12-18T09:01:32.401Z,3412
2016-12-18T09:02:32.054Z,3140
2016-12-18T09:03:32.318Z,3176
2016-12-18T09:04:31.977Z,3388
2016-12-18T09:05:31.937Z,3572
2016-12-18T09:06:31.912Z,3512
2016-12-18T09:07:32.177Z,3380
2016-12-18T09:08:31.507Z,3392
2016-12-18T09:09:32.068Z,3504
2016-12-18T09:10:31.723Z,3688
2016-12-18T09:11:31.990Z,3912
2016-12-18T09:12:31.654Z,4384
2016-12-18T09:13:31.605Z,5408
2016-12-18T09:14:31.867Z,6328
2016-12-18T09:15:30.920Z,6928
2016-12-18T09:16:31.784Z,7528
2016-12-18T09:17:31.440Z,8732
2016-12-18T09:18:31.709Z,10548
2016-12-18T09:19:31.361Z,11608
2016-12-18T09:20:31.351Z,12600
2016-12-18T09:21:31.577Z,12356
2016-12-18T09:22:30.932Z,10544
2016-12-18T09:23:30.891Z,7332
2016-12-18T09:24:31.155Z,5524
2016-12-18T09:25:31.120Z,4864
2016-12-18T09:26:31.377Z,4644
2016-12-18T09:27:31.360Z,4624
2016-12-18T09:28:31.299Z,4504
2016-12-18T09:29:31.260Z,4452
2016-12-18T09:30:30.913Z,4548
2016-12-18T09:31:30.880Z,4972
2016-12-18T09:32:30.837Z,5992
2016-12-18T09:33:30.793Z,7804
2016-12-18T09:34:31.061Z,9328
2016-12-18T09:35:30.756Z,10608
2016-12-18T09:36:30.977Z,12132
2016-12-18T09:37:30.938Z,13364
2016-12-18T09:38:30.915Z,18944
2016-12-18T09:39:30.569Z,14092
2016-12-18T09:40:30.818Z,12816
2016-12-18T09:41:30.791Z,16192
2016-12-18T09:42:30.130Z,14840
2016-12-18T09:43:30.716Z,14220
2016-12-18T09:44:30.665Z,12664
2016-12-18T09:45:30.639Z,12504
2016-12-18T09:46:30.587Z,11560
2016-12-18T09:47:29.946Z,9676
2016-12-18T09:48:30.508Z,8452
2016-12-18T09:49:30.494Z,7700
2016-12-18T09:50:30.128Z,7592
2016-12-18T09:51:29.785Z,7708
2016-12-18T09:52:30.349Z,7448
2016-12-18T09:53:30.315Z,6948
2016-12-18T09:54:29.970Z,7140
2016-12-18T09:55:29.937Z,7612
2016-12-18T09:56:30.196Z,7956
2016-12-18T09:57:29.865Z,8212
2016-12-18T09:58:30.112Z,8476
2016-12-18T09:59:30.079Z,8744
2016-12-18T10:00:29.437Z,8992
2016-12-18T10:01:30.004Z,9228
2016-12-18T10:02:29.958Z,8736
2016-12-18T10:03:29.654Z,8096
2016-12-18T10:04:29.891Z,7536
2016-12-18T10:05:29.546Z,7368
2016-12-18T10:06:29.804Z,7336
2016-12-18T10:07:29.468Z,7580
2016-12-18T10:08:29.731Z,8168
2016-12-18T10:09:29.400Z,8652
2016-12-18T10:10:29.360Z,8640
2016-12-18T10:11:29.005Z,8640
2016-12-18T10:12:29.581Z,8864
2016-12-18T10:13:29.228Z,9564
2016-12-18T10:14:29.492Z,10392
2016-12-18T10:15:29.151Z,11276
2016-12-18T10:16:29.110Z,11368
2016-12-18T10:17:29.383Z,11592
2016-12-18T10:18:29.345Z,12180
2016-12-18T10:19:28.698Z,12504
2016-12-18T10:20:28.956Z,13280
2016-12-18T10:21:28.920Z,19552
2016-12-18T10:22:29.189Z,16768
2016-12-18T10:23:28.542Z,15000
2016-12-18T10:24:28.806Z,15844
2016-12-18T10:25:29.067Z,16992
2016-12-18T10:26:28.732Z,16608
2016-12-18T10:27:28.995Z,17312
2016-12-18T10:28:28.964Z,19648
2016-12-18T10:29:28.307Z,23552
2016-12-18T10:30:28.889Z,16060
2016-12-18T10:31:28.543Z,14808
2016-12-18T10:32:28.807Z,13580
2016-12-18T10:33:28.466Z,12844
2016-12-18T10:34:28.773Z,12496
2016-12-18T10:35:28.691Z,12068
2016-12-18T10:36:27.748Z,11724
2016-12-18T10:37:28.619Z,11536
2016-12-18T10:38:28.597Z,11604
2016-12-18T10:39:27.939Z,11600
2016-12-18T10:40:28.206Z,11532
2016-12-18T10:41:28.172Z,11360
2016-12-18T10:42:28.134Z,11192
2016-12-18T10:43:28.397Z,10848
2016-12-18T10:44:28.090Z,10452
2016-12-18T10:45:28.327Z,10520
2016-12-18T10:46:28.282Z,10952
2016-12-18T10:47:28.250Z,11316
2016-12-18T10:48:28.217Z,11628
2016-12-18T10:49:27.589Z,11836
2016-12-18T10:50:27.542Z,12292
2016-12-18T10:51:28.098Z,12704
2016-12-18T10:52:28.065Z,12932
2016-12-18T10:53:27.733Z,13232
2016-12-18T10:54:27.991Z,13724
2016-12-18T10:55:27.956Z,13848
2016-12-18T10:56:27.612Z,13296
2016-12-18T10:57:27.903Z,12704
2016-12-18T10:58:27.840Z,12324
2016-12-18T10:59:27.825Z,12436
2016-12-18T11:00:27.768Z,12852
2016-12-18T11:01:27.734Z,13080
2016-12-18T11:02:27.689Z,12480
2016-12-18T11:03:27.060Z,11696
2016-12-18T11:04:27.619Z,11004
2016-12-18T11:05:27.274Z,10584
2016-12-18T11:06:27.245Z,10024
2016-12-18T11:07:27.505Z,9596
2016-12-18T11:08:27.476Z,9260
2016-12-18T11:09:26.824Z,8836
2016-12-18T11:10:26.790Z,8820
2016-12-18T11:11:27.359Z,8556
2016-12-18T11:12:27.024Z,8332
2016-12-18T11:13:27.012Z,8244
2016-12-18T11:14:27.239Z,8232
2016-12-18T11:15:26.960Z,8284
2016-12-18T11:16:26.867Z,8448
2016-12-18T11:17:26.830Z,8740
2016-12-18T11:18:26.486Z,9100
2016-12-18T11:19:27.060Z,9528
2016-12-18T11:20:26.719Z,10120
2016-12-18T11:21:26.676Z,10520
2016-12-18T11:22:26.934Z,10880
2016-12-18T11:23:26.901Z,10548
2016-12-18T11:24:26.865Z,10628
2016-12-18T11:25:26.826Z,12552
2016-12-18T11:26:26.490Z,10592
2016-12-18T11:27:26.452Z,10572
2016-12-18T11:28:26.406Z,10420
2016-12-18T11:29:26.377Z,10264
2016-12-18T11:30:26.639Z,11444
2016-12-18T11:31:26.294Z,11184
2016-12-18T11:32:26.598Z,9596
2016-12-18T11:33:25.913Z,9256
2016-12-18T11:34:25.880Z,8972
2016-12-18T11:35:26.145Z,8668
2016-12-18T11:36:26.410Z,8544
2016-12-18T11:37:26.073Z,8400
2016-12-18T11:38:26.035Z,8144
2016-12-18T11:39:26.300Z,8008
2016-12-18T11:40:26.261Z,8056
2016-12-18T11:41:25.613Z,8208
2016-12-18T11:42:26.182Z,8372
2016-12-18T11:43:26.144Z,8456
2016-12-18T11:44:26.101Z,8424
2016-12-18T11:45:25.764Z,8528
2016-12-18T11:46:25.125Z,8588
2016-12-18T11:47:25.994Z,8576
2016-12-18T11:48:25.652Z,8704
2016-12-18T11:49:25.909Z,8760
2016-12-18T11:50:25.271Z,8048
2016-12-18T11:51:25.842Z,7892
2016-12-18T11:52:25.506Z,7928
2016-12-18T11:53:25.762Z,7816
2016-12-18T11:54:25.720Z,7860
2016-12-18T11:55:25.383Z,8000
2016-12-18T11:56:25.357Z,8088
2016-12-18T11:57:25.322Z,8048
2016-12-18T11:58:25.563Z,8032
2016-12-18T11:59:24.929Z,8024
2016-12-18T12:00:25.488Z,7844
2016-12-18T12:01:25.451Z,7624
2016-12-18T12:02:25.111Z,7580
2016-12-18T12:03:25.376Z,7440
2016-12-18T12:04:25.339Z,7112
2016-12-18T12:05:24.999Z,6684
2016-12-18T12:06:25.260Z,6408
2016-12-18T12:07:24.920Z,6236
2016-12-18T12:08:24.883Z,6108
2016-12-18T12:09:24.838Z,5964
2016-12-18T12:10:24.812Z,5752
2016-12-18T12:11:24.766Z,5544
2016-12-18T12:12:24.723Z,5376
2016-12-18T12:13:24.701Z,5320
2016-12-18T12:14:24.646Z,5328
2016-12-18T12:15:24.605Z,5368
2016-12-18T12:16:24.568Z,5408
2016-12-18T12:17:24.529Z,5540
2016-12-18T12:18:24.488Z,5864
2016-12-18T12:19:24.459Z,6212
2016-12-18T12:20:24.414Z,6496
2016-12-18T12:21:24.679Z,6584
2016-12-18T12:22:24.048Z,6616
2016-12-18T12:23:24.311Z,6744
2016-12-18T12:24:23.952Z,6940
2016-12-18T12:25:24.521Z,7120
2016-12-18T12:26:24.484Z,7156
2016-12-18T12:27:24.138Z,7224
2016-12-18T12:28:24.413Z,7200
2016-12-18T12:29:24.061Z,7172
2016-12-18T12:30:24.024Z,7068
2016-12-18T12:31:23.980Z,6940
2016-12-18T12:32:24.256Z,6776
2016-12-18T12:33:24.209Z,6564
2016-12-18T12:34:23.870Z,6348
2016-12-18T12:35:24.128Z,6104
2016-12-18T12:36:24.120Z,5960
2016-12-18T12:37:23.749Z,5680
2016-12-18T12:38:23.714Z,5404
2016-12-18T12:39:23.971Z,5204
2016-12-18T12:40:23.959Z,5016
2016-12-18T12:41:23.589Z,4808
2016-12-18T12:42:23.859Z,4576
2016-12-18T12:43:23.513Z,4388
2016-12-18T12:44:23.500Z,4248
2016-12-18T12:45:23.735Z,4060
2016-12-18T12:46:23.103Z,3856
2016-12-18T12:47:23.659Z,3676
2016-12-18T12:48:23.621Z,3568
2016-12-18T12:49:23.282Z,3524
2016-12-18T12:50:23.239Z,3532
2016-12-18T12:51:23.501Z,3564
2016-12-18T12:52:23.163Z,3592
2016-12-18T12:53:23.120Z,3612
2016-12-18T12:54:23.084Z,3624
2016-12-18T12:55:23.341Z,3620
2016-12-18T12:56:22.709Z,3560
2016-12-18T12:57:22.965Z,3500
2016-12-18T12:58:23.224Z,3488
2016-12-18T12:59:23.187Z,3476
2016-12-18T13:00:22.543Z,3476
2016-12-18T13:01:22.806Z,3436
2016-12-18T13:02:22.763Z,3344
2016-12-18T13:03:22.725Z,3216
2016-12-18T13:04:22.688Z,3116
2016-12-18T13:05:22.351Z,3088
2016-12-18T13:06:22.606Z,3036
2016-12-18T13:07:22.876Z,2904
2016-12-18T13:08:22.829Z,2800
2016-12-18T13:09:22.208Z,2764
2016-12-18T13:10:22.756Z,2716
2016-12-18T13:11:22.707Z,2668
2016-12-18T13:12:22.368Z,2608
2016-12-18T13:13:22.327Z,2544
2016-12-18T13:14:22.290Z,2500
2016-12-18T13:15:22.252Z,2488
2016-12-18T13:16:22.206Z,2480
2016-12-18T13:17:22.468Z,2492
2016-12-18T13:18:22.126Z,2516
2016-12-18T13:19:21.785Z,2528
2016-12-18T13:20:21.754Z,2488
2016-12-18T13:21:22.309Z,2452
2016-12-18T13:22:22.267Z,2464
2016-12-18T13:23:22.235Z,2488
2016-12-18T13:24:21.892Z,2492
2016-12-18T13:25:22.148Z,2412
2016-12-18T13:26:21.806Z,2288
2016-12-18T13:27:22.071Z,2256
2016-12-18T13:28:21.725Z,2260
2016-12-18T13:29:21.684Z,2272
2016-12-18T13:30:21.343Z,2284
2016-12-18T13:31:21.606Z,2248
2016-12-18T13:32:21.563Z,2224
2016-12-18T13:33:21.827Z,2240
2016-12-18T13:34:21.793Z,2288
2016-12-18T13:35:21.144Z,2360
2016-12-18T13:36:21.403Z,2456
2016-12-18T13:37:21.364Z,2520
2016-12-18T13:38:21.622Z,2544
2016-12-18T13:39:20.980Z,2572
2016-12-18T13:40:21.541Z,2636
2016-12-18T13:41:21.504Z,2716
2016-12-18T13:42:21.161Z,2804
2016-12-18T13:43:21.120Z,2872
2016-12-18T13:44:21.084Z,2904
2016-12-18T13:45:21.038Z,2928
2016-12-18T13:46:21.294Z,2948
2016-12-18T13:47:20.953Z,2936
2016-12-18T13:48:20.910Z,2860
2016-12-18T13:49:21.182Z,2720
2016-12-18T13:50:20.530Z,2588
2016-12-18T13:51:21.099Z,2496
2016-12-18T13:52:21.052Z,2412
2016-12-18T13:53:21.026Z,2320
2016-12-18T13:54:20.974Z,2280
2016-12-18T13:55:20.628Z,2248
2016-12-18T13:56:20.587Z,2232
2016-12-18T13:57:20.846Z,2244
2016-12-18T13:58:20.507Z,2280
2016-12-18T13:59:20.772Z,2348